Time;durP1;ratioP1;P1;durP2;ratioP2;P2;SDS_P1;SDS_P2;PMS_P1;PMS_P2;Temp;Humidity;BMP_temperature;BMP_pressure;BME280_temperature;BME280_humidity;BME280_pressure;Samples;Min_cycle;Max_cycle;Signal;HPM_P1;HPM_P2
2022/11/09 00:01:34;;;;;;;3.58;1.52;;;;;;;14.48;nan;100034.50;5074935;28;20030;-84
2022/11/09 00:04:01;;;;;;;2.33;1.48;;;;;;;14.36;nan;100050.13;5099125;28;20047;-86
2022/11/09 00:06:28;;;;;;;4.03;1.75;;;;;;;14.09;nan;100049.00;5087277;28;20039;-87
2022/11/09 00:08:53;;;;;;;3.75;1.80;;;;;;;13.94;nan;100058.81;5092818;28;20050;-87
2022/11/09 00:11:19;;;;;;;4.07;1.70;;;;;;;13.82;nan;100061.13;5087997;28;20054;-87
2022/11/09 00:13:45;;;;;;;4.38;1.75;;;;;;;13.68;nan;100076.09;5075755;28;20087;-87
2022/11/09 00:16:13;;;;;;;3.05;1.75;;;;;;;13.64;nan;100098.72;5088225;28;20036;-87
2022/11/09 00:18:39;;;;;;;4.35;1.90;;;;;;;13.57;nan;100087.16;5095744;28;20597;-87
2022/11/09 00:21:09;;;;;;;4.63;2.47;;;;;;;13.46;nan;100101.69;5101773;28;20130;-88
2022/11/09 00:23:35;;;;;;;5.68;2.50;;;;;;;13.40;nan;100101.63;5075850;28;20089;-85
2022/11/09 00:26:06;;;;;;;4.88;2.20;;;;;;;13.33;nan;100101.50;5071359;28;20128;-86
2022/11/09 00:28:31;;;;;;;4.95;2.60;;;;;;;13.23;nan;100104.38;5075658;28;20112;-86
2022/11/09 00:31:05;;;;;;;5.28;2.50;;;;;;;13.17;nan;100105.91;5076503;28;20040;-87
2022/11/09 00:33:30;;;;;;;4.28;2.53;;;;;;;13.14;nan;100114.25;5081669;28;20489;-87
2022/11/09 00:35:56;;;;;;;4.93;2.47;;;;;;;13.09;nan;100124.56;5081022;28;20122;-85
2022/11/09 00:38:22;;;;;;;5.63;3.15;;;;;;;13.07;nan;100112.47;5089447;28;20046;-86
2022/11/09 00:40:47;;;;;;;3.30;2.30;;;;;;;13.02;nan;100097.09;5083520;28;20034;-85
2022/11/09 00:43:13;;;;;;;4.95;2.92;;;;;;;13.02;nan;100098.94;5082944;28;20036;-86
2022/11/09 00:45:39;;;;;;;4.90;2.88;;;;;;;13.01;nan;100098.06;5084466;28;20102;-85
2022/11/09 00:48:05;;;;;;;5.20;2.90;;;;;;;12.99;nan;100097.44;5095559;28;20054;-86
2022/11/09 00:50:31;;;;;;;4.32;2.88;;;;;;;13.00;nan;100093.78;5081896;28;20614;-86
2022/11/09 00:52:56;;;;;;;4.75;2.92;;;;;;;12.97;nan;100104.75;5096736;28;20088;-85
2022/11/09 00:55:23;;;;;;;4.30;2.80;;;;;;;12.96;nan;100111.06;5087810;28;20088;-86
2022/11/09 00:57:49;;;;;;;5.07;2.97;;;;;;;12.94;nan;100118.38;5083457;28;20358;-86
2022/11/09 01:00:19;;;;;;;5.78;2.90;;;;;;;12.95;nan;100120.03;5079356;28;20028;-86
2022/11/09 01:02:45;;;;;;;4.63;2.92;;;;;;;12.94;nan;100129.84;5091681;28;20024;-86
2022/11/09 01:05:10;;;;;;;3.83;2.75;;;;;;;12.95;nan;100125.34;5087859;28;20077;-87
2022/11/09 01:07:36;;;;;;;6.32;2.90;;;;;;;12.95;nan;100135.97;5083015;28;20038;-85
2022/11/09 01:10:03;;;;;;;6.15;2.90;;;;;;;12.92;nan;100144.28;5075374;28;20038;-86
2022/11/09 01:12:28;;;;;;;4.88;2.78;;;;;;;12.91;nan;100137.31;5100847;28;20040;-86
2022/11/09 01:14:53;;;;;;;5.77;2.70;;;;;;;12.89;nan;100137.47;5075261;28;20043;-84
2022/11/09 01:17:19;;;;;;;4.93;3.10;;;;;;;12.89;nan;100134.81;5073913;28;20346;-86
2022/11/09 01:19:44;;;;;;;6.13;2.97;;;;;;;12.87;nan;100122.72;5083156;28;20028;-86
2022/11/09 01:22:09;;;;;;;5.43;3.33;;;;;;;12.84;nan;100137.19;5077423;28;20028;-86
2022/11/09 01:24:34;;;;;;;4.10;2.90;;;;;;;12.83;nan;100132.88;5105083;28;20119;-85
2022/11/09 01:27:00;;;;;;;4.65;3.30;;;;;;;12.83;nan;100132.88;5072240;28;20291;-85
2022/11/09 01:29:25;;;;;;;5.55;3.55;;;;;;;12.83;nan;100137.38;5074454;28;20032;-86
2022/11/09 01:31:53;;;;;;;5.97;3.30;;;;;;;12.79;nan;100138.72;5086829;28;20063;-85
2022/11/09 01:34:19;;;;;;;5.22;3.15;;;;;;;12.77;nan;100138.88;5069407;28;20070;-85
2022/11/09 01:36:44;;;;;;;5.88;3.55;;;;;;;12.78;nan;100140.56;5080992;28;20115;-86
2022/11/09 01:39:09;;;;;;;5.25;3.60;;;;;;;12.78;nan;100142.38;5099904;28;20036;-86
2022/11/09 01:41:34;;;;;;;5.75;3.60;;;;;;;12.76;nan;100129.28;5096357;28;20075;-86
2022/11/09 01:44:10;;;;;;;5.05;3.38;;;;;;;12.75;nan;100130.25;5070235;28;20056;-86
2022/11/09 01:46:58;;;;;;;6.00;3.97;;;;;;;12.72;nan;100122.66;5072598;28;20031;-85
2022/11/09 01:49:33;;;;;;;6.20;3.78;;;;;;;12.69;nan;100117.72;5091272;28;20040;-85
2022/11/09 01:52:05;;;;;;;5.63;3.55;;;;;;;12.70;nan;100122.88;5078829;28;20041;-85
2022/11/09 01:54:37;;;;;;;4.45;3.35;;;;;;;12.66;nan;100116.25;5071580;28;20063;-85
2022/11/09 01:57:07;;;;;;;4.60;3.28;;;;;;;12.66;nan;100110.94;5092330;28;20641;-85
2022/11/09 01:59:39;;;;;;;6.40;3.33;;;;;;;12.67;nan;100122.38;5092818;28;20408;-86
2022/11/09 02:02:05;;;;;;;4.95;3.65;;;;;;;12.65;nan;100122.53;5075197;28;20031;-85
2022/11/09 02:04:37;;;;;;;7.47;3.35;;;;;;;12.63;nan;100119.25;5075551;28;20039;-85
2022/11/09 02:07:03;;;;;;;3.97;3.00;;;;;;;12.62;nan;100101.69;5100495;28;20032;-85
2022/11/09 02:09:38;;;;;;;5.85;3.40;;;;;;;12.60;nan;100098.38;5075488;28;20034;-85
2022/11/09 02:12:05;;;;;;;4.75;2.92;;;;;;;12.62;nan;100106.16;5073708;28;20086;-85
2022/11/09 02:14:33;;;;;;;4.30;3.00;;;;;;;12.62;nan;100104.31;5075171;28;20046;-85
2022/11/09 02:16:59;;;;;;;5.72;3.20;;;;;;;12.61;nan;100108.00;5098632;28;20445;-85
2022/11/09 02:19:24;;;;;;;4.50;2.53;;;;;;;12.59;nan;100109.19;5092920;28;20032;-85
2022/11/09 02:21:49;;;;;;;6.28;3.15;;;;;;;12.57;nan;100111.16;5078925;28;20052;-85
2022/11/09 02:24:15;;;;;;;5.72;2.85;;;;;;;12.56;nan;100112.16;5071829;28;20086;-85
2022/11/09 02:26:49;;;;;;;4.82;2.90;;;;;;;12.57;nan;100108.53;5089329;28;20489;-85
2022/11/09 02:29:36;;;;;;;4.03;3.05;;;;;;;12.57;nan;100100.56;5092423;28;20157;-85
2022/11/09 02:32:07;;;;;;;5.18;2.78;;;;;;;12.57;nan;100103.22;5091958;28;20062;-84
2022/11/09 02:34:32;;;;;;;6.07;2.90;;;;;;;12.57;nan;100105.88;5091604;28;20109;-85
2022/11/09 02:36:58;;;;;;;5.05;2.75;;;;;;;12.57;nan;100101.38;5093882;28;20039;-86
2022/11/09 02:39:25;;;;;;;4.88;3.45;;;;;;;12.59;nan;100101.22;5094313;28;20475;-86
2022/11/09 02:41:53;;;;;;;4.80;3.30;;;;;;;12.59;nan;100103.88;5072962;28;20028;-85
2022/11/09 02:44:19;;;;;;;4.68;3.35;;;;;;;12.60;nan;100100.19;5076673;28;20044;-86
2022/11/09 02:46:44;;;;;;;4.28;3.00;;;;;;;12.60;nan;100090.41;5093978;28;20036;-86
2022/11/09 02:49:09;;;;;;;6.40;3.47;;;;;;;12.60;nan;100092.25;5074969;28;20043;-86
2022/11/09 02:51:36;;;;;;;4.57;3.05;;;;;;;12.61;nan;100084.13;5094752;28;20066;-85
2022/11/09 02:54:01;;;;;;;4.80;3.10;;;;;;;12.62;nan;100082.28;5097854;28;20042;-86
2022/11/09 02:56:26;;;;;;;4.40;3.28;;;;;;;12.64;nan;100086.41;5096059;28;20048;-86
2022/11/09 02:58:51;;;;;;;7.97;3.13;;;;;;;12.65;nan;100076.63;5081209;28;20531;-86
2022/11/09 03:01:17;;;;;;;4.38;3.05;;;;;;;12.65;nan;100060.72;5096904;28;20047;-85
2022/11/09 03:03:42;;;;;;;5.10;3.00;;;;;;;12.66;nan;100060.53;5078657;28;20588;-85
2022/11/09 03:06:08;;;;;;;5.22;2.90;;;;;;;12.63;nan;100052.09;5075039;28;20033;-85
2022/11/09 03:08:33;;;;;;;4.88;3.08;;;;;;;12.65;nan;100055.41;5078711;28;20497;-85
2022/11/09 03:10:59;;;;;;;4.68;2.88;;;;;;;12.64;nan;100043.16;5095210;28;20055;-87
2022/11/09 03:13:24;;;;;;;4.43;2.50;;;;;;;12.64;nan;100041.31;5075601;28;20043;-85
2022/11/09 03:15:49;;;;;;;5.10;2.72;;;;;;;12.66;nan;100047.28;5074784;28;20600;-86
2022/11/09 03:18:15;;;;;;;4.97;2.90;;;;;;;12.67;nan;100042.78;5082438;28;20024;-86
2022/11/09 03:20:40;;;;;;;4.45;2.40;;;;;;;12.65;nan;100053.56;5083370;28;20032;-85
2022/11/09 03:23:05;;;;;;;3.97;2.50;;;;;;;12.63;nan;100038.84;5090176;28;20036;-86
2022/11/09 03:25:30;;;;;;;3.83;2.58;;;;;;;12.63;nan;100037.03;5090891;28;20826;-86
2022/11/09 03:27:57;;;;;;;3.40;2.40;;;;;;;12.63;nan;100037.03;5082369;28;20079;-85
2022/11/09 03:30:23;;;;;;;3.45;2.50;;;;;;;12.63;nan;100037.03;5079466;28;20032;-86
2022/11/09 03:32:48;;;;;;;3.90;2.80;;;;;;;12.62;nan;100031.91;5074816;28;20115;-86
2022/11/09 03:35:13;;;;;;;4.07;2.58;;;;;;;12.63;nan;100033.53;5102735;28;20826;-85
2022/11/09 03:37:39;;;;;;;2.63;2.17;;;;;;;12.63;nan;100022.91;5084357;28;20024;-85
2022/11/09 03:40:04;;;;;;;2.83;2.20;;;;;;;12.63;nan;100041.50;5093622;28;20119;-86
2022/11/09 03:42:30;;;;;;;3.40;2.28;;;;;;;12.63;nan;100050.28;5068600;28;20067;-85
2022/11/09 03:44:55;;;;;;;3.23;2.40;;;;;;;12.63;nan;100044.13;5071647;28;20032;-85
2022/11/09 03:47:20;;;;;;;3.67;2.20;;;;;;;12.62;nan;100051.28;5085026;28;20311;-85
2022/11/09 03:49:45;;;;;;;3.47;2.20;;;;;;;12.59;nan;100053.47;5093454;28;20735;-85
2022/11/09 03:52:11;;;;;;;3.25;2.20;;;;;;;12.58;nan;100046.50;5070087;28;20122;-86
2022/11/09 03:54:36;;;;;;;4.15;2.42;;;;;;;12.54;nan;100057.47;5071297;28;20046;-85
2022/11/09 03:57:01;;;;;;;3.80;2.50;;;;;;;12.52;nan;100064.78;5073683;28;20035;-85
2022/11/09 03:59:26;;;;;;;3.47;2.17;;;;;;;12.62;nan;100067.19;5085924;28;20497;-85
2022/11/09 04:01:52;;;;;;;3.10;2.20;;;;;;;12.56;nan;100067.91;5073446;28;20050;-85
2022/11/09 04:04:17;;;;;;;5.40;2.65;;;;;;;12.51;nan;100073.75;5073796;28;20086;-86
2022/11/09 04:06:42;;;;;;;5.00;2.83;;;;;;;12.51;nan;100088.81;5074073;28;20349;-85
2022/11/09 04:09:08;;;;;;;3.95;3.10;;;;;;;12.48;nan;100083.88;5073356;28;20035;-85
2022/11/09 04:11:34;;;;;;;6.80;3.60;;;;;;;12.44;nan;100083.41;5100203;28;20114;-85
2022/11/09 04:13:59;;;;;;;5.33;3.90;;;;;;;12.40;nan;100084.75;5081083;28;20077;-85
2022/11/09 04:16:24;;;;;;;6.53;3.60;;;;;;;12.37;nan;100089.56;5090976;28;20262;-86
2022/11/09 04:18:50;;;;;;;6.55;3.65;;;;;;;12.36;nan;100087.91;5071353;28;20434;-86
2022/11/09 04:21:15;;;;;;;5.00;3.13;;;;;;;12.32;nan;100082.13;5072549;28;20047;-86
2022/11/09 04:23:40;;;;;;;4.63;3.00;;;;;;;12.32;nan;100092.72;5072664;28;20643;-86
2022/11/09 04:26:05;;;;;;;5.88;3.70;;;;;;;12.31;nan;100093.75;5080989;28;20028;-85
2022/11/09 04:28:31;;;;;;;3.73;2.83;;;;;;;12.28;nan;100088.78;5065150;28;20433;-86
2022/11/09 04:30:59;;;;;;;4.80;3.33;;;;;;;12.27;nan;100092.41;5091843;28;20282;-85
2022/11/09 04:33:24;;;;;;;3.75;2.90;;;;;;;12.27;nan;100095.91;5083107;28;20028;-85
2022/11/09 04:35:50;;;;;;;4.47;3.20;;;;;;;12.22;nan;100092.94;5097931;28;20088;-85
2022/11/09 04:38:15;;;;;;;4.30;3.03;;;;;;;12.24;nan;100083.00;5075572;28;20561;-85
2022/11/09 04:40:40;;;;;;;5.65;3.53;;;;;;;12.21;nan;100075.41;5071727;28;20342;-86
2022/11/09 04:43:09;;;;;;;6.85;3.47;;;;;;;12.20;nan;100094.94;5080004;28;20046;-86
2022/11/09 04:45:34;;;;;;;6.85;4.53;;;;;;;12.20;nan;100080.84;5086617;28;20167;-86
2022/11/09 04:48:01;;;;;;;6.15;4.20;;;;;;;12.24;nan;100088.28;5087083;28;20033;-86
2022/11/09 04:50:28;;;;;;;6.45;3.90;;;;;;;12.19;nan;100081.88;5066788;28;20093;-85
2022/11/09 04:52:53;;;;;;;5.55;4.60;;;;;;;12.20;nan;100086.16;5071753;28;20071;-86
2022/11/09 04:55:19;;;;;;;8.02;4.50;;;;;;;12.20;nan;100089.63;5086150;28;20067;-85
2022/11/09 04:57:44;;;;;;;5.68;4.00;;;;;;;12.19;nan;100092.47;5070807;28;20032;-85
2022/11/09 05:00:10;;;;;;;5.75;3.90;;;;;;;12.17;nan;100097.13;5071185;28;20727;-85
2022/11/09 05:02:35;;;;;;;6.20;4.75;;;;;;;12.17;nan;100081.22;5063303;28;20035;-85
2022/11/09 05:05:00;;;;;;;5.40;4.40;;;;;;;12.17;nan;100089.16;5090183;28;20032;-85
2022/11/09 05:07:26;;;;;;;5.65;3.90;;;;;;;12.15;nan;100089.34;5074844;28;20581;-85
2022/11/09 05:09:51;;;;;;;5.55;3.38;;;;;;;12.15;nan;100091.16;5080761;28;20040;-86
2022/11/09 05:12:16;;;;;;;5.23;3.40;;;;;;;12.17;nan;100100.59;5100085;28;20098;-85
2022/11/09 05:14:42;;;;;;;4.90;2.97;;;;;;;12.22;nan;100100.06;5088478;28;20281;-86
2022/11/09 05:17:07;;;;;;;4.77;2.90;;;;;;;12.22;nan;100087.63;5090008;28;20300;-86
2022/11/09 05:19:33;;;;;;;4.10;2.80;;;;;;;12.25;nan;100102.38;5073551;28;20287;-85
2022/11/09 05:23:57;;;;;;;5.07;3.10;;;;;;;12.24;nan;100095.44;5093681;28;20040;-86
2022/11/09 05:24:44;;;;;;;5.20;3.17;;;;;;;12.27;nan;100121.59;5088057;28;20048;-85
2022/11/09 05:27:09;;;;;;;4.38;3.20;;;;;;;12.26;nan;100118.13;5077242;28;20068;-85
2022/11/09 05:29:34;;;;;;;5.43;3.42;;;;;;;12.27;nan;100105.69;5075031;28;20046;-85
2022/11/09 05:31:59;;;;;;;5.05;3.13;;;;;;;12.27;nan;100116.28;5075987;28;20028;-85
2022/11/09 05:34:25;;;;;;;4.17;2.93;;;;;;;12.24;nan;100124.59;5089438;28;20093;-86
2022/11/09 05:36:50;;;;;;;4.20;2.80;;;;;;;12.26;nan;100126.06;5092566;28;20357;-85
2022/11/09 05:39:15;;;;;;;4.13;2.60;;;;;;;12.29;nan;100133.66;5096128;28;20396;-86
2022/11/09 05:41:41;;;;;;;4.35;2.70;;;;;;;12.28;nan;100128.56;5094344;28;20115;-86
2022/11/09 05:44:06;;;;;;;4.22;2.67;;;;;;;12.26;nan;100130.56;5075383;28;20043;-86
2022/11/09 05:46:32;;;;;;;4.03;2.58;;;;;;;12.27;nan;100132.19;5073843;28;20033;-85
2022/11/09 05:48:58;;;;;;;6.30;2.67;;;;;;;12.28;nan;100129.38;5072998;28;20547;-85
2022/11/09 05:51:23;;;;;;;3.33;2.35;;;;;;;12.28;nan;100132.03;5074345;28;20144;-86
2022/11/09 05:53:48;;;;;;;3.45;2.55;;;;;;;12.26;nan;100125.25;5080710;28;20040;-86
2022/11/09 05:56:14;;;;;;;5.40;2.40;;;;;;;12.27;nan;100114.44;5089158;28;20036;-86
2022/11/09 05:58:40;;;;;;;5.90;3.17;;;;;;;12.26;nan;100104.03;5085074;28;20289;-85
2022/11/09 06:01:12;;;;;;;4.32;2.90;;;;;;;12.28;nan;100099.41;5099630;28;20036;-86
2022/11/09 06:03:37;;;;;;;3.70;2.65;;;;;;;12.29;nan;100103.69;5073929;28;20373;-86
2022/11/09 06:06:06;;;;;;;6.85;3.25;;;;;;;12.27;nan;100109.16;5097676;28;20032;-85
2022/11/09 06:08:31;;;;;;;4.60;2.65;;;;;;;12.26;nan;100123.41;5074362;28;20043;-86
2022/11/09 06:11:01;;;;;;;4.90;2.67;;;;;;;12.27;nan;100122.41;5103333;28;20559;-87
2022/11/09 06:13:27;;;;;;;3.33;2.30;;;;;;;12.25;nan;100124.44;5074134;28;20040;-86
2022/11/09 06:15:55;;;;;;;4.82;2.50;;;;;;;12.27;nan;100134.84;5094453;28;20290;-85
2022/11/09 06:18:21;;;;;;;4.95;2.70;;;;;;;12.26;nan;100136.66;5078277;28;20031;-86
2022/11/09 06:20:50;;;;;;;3.03;2.40;;;;;;;12.25;nan;100124.44;5068678;28;20051;-86
2022/11/09 06:23:15;;;;;;;5.55;2.97;;;;;;;12.21;nan;100125.75;5075006;28;20040;-84
2022/11/09 06:25:41;;;;;;;3.10;2.28;;;;;;;12.25;nan;100115.63;5073645;28;20471;-84
2022/11/09 06:28:06;;;;;;;3.63;2.38;;;;;;;12.22;nan;100129.22;5073426;28;20048;-84
2022/11/09 06:30:31;;;;;;;4.97;2.90;;;;;;;12.21;nan;100130.25;5074652;28;20508;-85
2022/11/09 06:33:01;;;;;;;3.50;2.50;;;;;;;12.20;nan;100124.09;5092162;28;20036;-84
2022/11/09 06:35:26;;;;;;;5.35;2.53;;;;;;;12.21;nan;100117.00;5078364;28;20424;-84
2022/11/09 06:37:56;;;;;;;3.20;2.25;;;;;;;12.23;nan;100122.94;5071455;28;20063;-83
2022/11/09 06:40:22;;;;;;;3.72;1.95;;;;;;;12.23;nan;100122.94;5073820;28;20032;-84
2022/11/09 06:42:47;;;;;;;3.95;2.00;;;;;;;12.24;nan;100137.84;5077553;28;20043;-84
2022/11/09 06:45:12;;;;;;;4.10;1.95;;;;;;;12.22;nan;100142.50;5097049;28;20584;-85
2022/11/09 06:47:38;;;;;;;3.60;1.92;;;;;;;12.20;nan;100144.47;5091678;28;20070;-85
2022/11/09 06:50:03;;;;;;;2.65;1.70;;;;;;;12.21;nan;100141.66;5086599;28;20028;-84
2022/11/09 06:52:29;;;;;;;3.58;1.80;;;;;;;12.21;nan;100141.66;5100383;28;20035;-84
2022/11/09 06:54:54;;;;;;;3.80;1.80;;;;;;;12.23;nan;100141.50;5075429;28;20044;-84
2022/11/09 06:57:19;;;;;;;2.30;1.58;;;;;;;12.23;nan;100136.22;5092733;28;20028;-84
2022/11/09 06:59:45;;;;;;;2.95;1.70;;;;;;;12.19;nan;100130.41;5092428;28;20036;-83
2022/11/09 07:02:16;;;;;;;3.55;1.40;;;;;;;12.23;nan;100125.59;5091759;28;20036;-83
2022/11/09 07:04:43;;;;;;;2.92;1.25;;;;;;;12.25;nan;100118.28;5089813;28;20069;-84
2022/11/09 07:07:08;;;;;;;2.08;1.30;;;;;;;12.26;nan;100123.41;5080704;28;20051;-85
2022/11/09 07:09:33;;;;;;;2.47;1.40;;;;;;;12.27;nan;100122.41;5100804;28;20051;-84
2022/11/09 07:11:58;;;;;;;1.95;1.00;;;;;;;12.30;nan;100100.88;5076605;28;20043;-83
2022/11/09 07:14:24;;;;;;;1.80;1.00;;;;;;;12.32;nan;100092.72;5075338;28;20425;-84
2022/11/09 07:16:49;;;;;;;1.67;0.88;;;;;;;12.31;nan;100091.91;5091263;28;20036;-84
2022/11/09 07:19:14;;;;;;;2.00;0.70;;;;;;;12.33;nan;100102.34;5075116;28;20455;-85
2022/11/09 07:21:40;;;;;;;1.88;0.80;;;;;;;12.36;nan;100094.03;5073509;28;20478;-84
2022/11/09 07:24:05;;;;;;;1.17;0.80;;;;;;;12.34;nan;100103.97;5074966;28;20526;-85
2022/11/09 07:26:31;;;;;;;1.67;0.80;;;;;;;12.34;nan;100093.38;5091559;28;20461;-85
2022/11/09 07:28:57;;;;;;;0.82;0.70;;;;;;;12.32;nan;100098.88;5074694;28;20388;-84
2022/11/09 07:31:22;;;;;;;0.70;0.55;;;;;;;12.31;nan;100114.94;5075029;28;20040;-85
2022/11/09 07:33:49;;;;;;;1.80;0.70;;;;;;;12.37;nan;100131.97;5077342;28;20497;-85
2022/11/09 07:36:14;;;;;;;1.10;0.70;;;;;;;12.38;nan;100144.25;5096285;28;20622;-84
2022/11/09 07:38:39;;;;;;;0.73;0.60;;;;;;;12.34;nan;100130.50;5077669;28;20317;-85
2022/11/09 07:41:05;;;;;;;0.52;0.52;;;;;;;12.34;nan;100135.81;5070621;28;20127;-84
2022/11/09 07:43:30;;;;;;;1.70;0.75;;;;;;;12.35;nan;100142.78;5094088;28;20275;-85
2022/11/09 07:45:56;;;;;;;0.90;0.60;;;;;;;12.37;nan;100154.03;5080782;28;20044;-85
2022/11/09 07:48:22;;;;;;;0.73;0.65;;;;;;;12.40;nan;100153.69;5076483;28;20028;-85
2022/11/09 07:50:49;;;;;;;2.42;0.70;;;;;;;12.41;nan;100149.19;5061702;28;20588;-85
2022/11/09 07:53:15;;;;;;;0.60;0.50;;;;;;;12.42;nan;100157.00;5073384;28;20113;-84
2022/11/09 07:55:41;;;;;;;1.17;0.68;;;;;;;12.41;nan;100163.28;5096349;28;20405;-84
2022/11/09 07:58:14;;;;;;;1.42;0.70;;;;;;;12.38;nan;100171.59;5093354;28;20348;-85
2022/11/09 08:00:41;;;;;;;1.75;0.80;;;;;;;12.38;nan;100176.88;5075986;28;20103;-85
2022/11/09 08:03:08;;;;;;;2.00;0.68;;;;;;;12.37;nan;100177.06;5077686;28;20122;-84
2022/11/09 08:05:33;;;;;;;1.30;0.70;;;;;;;12.40;nan;100192.63;5078637;28;20040;-85
2022/11/09 08:08:01;;;;;;;1.85;0.80;;;;;;;12.38;nan;100199.94;5092336;28;20035;-85
2022/11/09 08:10:28;;;;;;;1.25;0.70;;;;;;;12.41;nan;100197.75;5090626;28;20378;-85
2022/11/09 08:13:02;;;;;;;1.63;0.80;;;;;;;12.39;nan;100207.69;5073652;28;20040;-86
2022/11/09 08:15:28;;;;;;;1.73;0.80;;;;;;;12.49;nan;100207.53;5071812;28;20039;-85
2022/11/09 08:17:57;;;;;;;1.25;0.80;;;;;;;12.58;nan;100208.28;5071433;28;20028;-85
2022/11/09 08:20:23;;;;;;;2.05;1.00;;;;;;;12.63;nan;100209.44;5070595;28;20077;-85
2022/11/09 08:22:48;;;;;;;2.25;1.10;;;;;;;12.70;nan;100226.31;5076151;28;20027;-85
2022/11/09 08:25:14;;;;;;;0.93;0.70;;;;;;;12.76;nan;100211.53;5071566;28;20032;-85
2022/11/09 08:27:40;;;;;;;3.63;1.05;;;;;;;12.78;nan;100206.88;5089640;28;20029;-85
2022/11/09 08:30:07;;;;;;;2.17;1.05;;;;;;;12.73;nan;100214.53;5071157;28;20067;-85
2022/11/09 08:32:36;;;;;;;2.40;0.80;;;;;;;12.77;nan;100217.66;5071195;28;20055;-85
2022/11/09 08:35:02;;;;;;;1.75;0.80;;;;;;;12.84;nan;100223.94;5089387;28;20089;-85
2022/11/09 08:37:27;;;;;;;1.92;0.98;;;;;;;12.85;nan;100214.97;5089775;28;20054;-86
2022/11/09 08:39:52;;;;;;;2.30;0.85;;;;;;;12.93;nan;100223.69;5072132;28;20086;-86
2022/11/09 08:42:17;;;;;;;1.33;0.77;;;;;;;12.96;nan;100233.97;5089166;28;20058;-85
2022/11/09 08:44:43;;;;;;;2.03;1.13;;;;;;;12.99;nan;100227.50;5089985;28;20032;-85
2022/11/09 08:47:08;;;;;;;2.20;1.00;;;;;;;13.00;nan;100231.81;5070033;28;20059;-86
2022/11/09 08:49:34;;;;;;;1.55;0.90;;;;;;;13.04;nan;100225.16;5070878;28;20305;-85
2022/11/09 08:52:00;;;;;;;2.45;0.75;;;;;;;13.10;nan;100234.22;5070330;28;20055;-85
2022/11/09 08:54:25;;;;;;;1.65;0.80;;;;;;;13.16;nan;100236.19;5070299;28;20052;-85
2022/11/09 08:56:54;;;;;;;3.35;1.00;;;;;;;13.25;nan;100232.50;5099811;28;20038;-85
2022/11/09 08:59:20;;;;;;;1.45;0.73;;;;;;;13.33;nan;100236.94;5069883;28;20099;-85
2022/11/09 09:01:45;;;;;;;0.82;0.60;;;;;;;13.39;nan;100230.91;5091644;28;20028;-85
2022/11/09 09:04:11;;;;;;;1.48;0.90;;;;;;;13.38;nan;100235.41;5088407;28;20516;-85
2022/11/09 09:06:36;;;;;;;1.88;0.90;;;;;;;13.43;nan;100244.66;5086403;28;20044;-86
2022/11/09 09:09:02;;;;;;;1.50;0.90;;;;;;;13.48;nan;100237.00;5080956;28;20226;-85
2022/11/09 09:11:27;;;;;;;1.60;0.90;;;;;;;13.52;nan;100246.25;5069672;28;20123;-85
2022/11/09 09:13:53;;;;;;;1.83;0.80;;;;;;;13.62;nan;100248.69;5097728;28;20040;-85
2022/11/09 09:16:18;;;;;;;1.38;0.90;;;;;;;13.72;nan;100246.59;5096775;28;20028;-85
2022/11/09 09:18:46;;;;;;;1.70;1.00;;;;;;;13.78;nan;100244.06;5071520;28;20412;-85
2022/11/09 09:21:12;;;;;;;2.20;0.80;;;;;;;13.81;nan;100233.06;5086975;28;20032;-86
2022/11/09 09:23:37;;;;;;;2.53;1.02;;;;;;;13.85;nan;100236.19;5069542;28;20500;-86
2022/11/09 09:26:03;;;;;;;3.15;1.00;;;;;;;13.96;nan;100243.72;5087771;28;20093;-86
2022/11/09 09:28:28;;;;;;;2.55;1.15;;;;;;;14.12;nan;100250.72;5071224;28;20058;-85
2022/11/09 09:30:57;;;;;;;1.95;1.00;;;;;;;14.30;nan;100252.19;5072714;28;20040;-85
2022/11/09 09:33:23;;;;;;;1.45;0.90;;;;;;;14.40;nan;100255.41;5072484;28;20050;-85
2022/11/09 09:35:50;;;;;;;1.52;0.90;;;;;;;14.50;nan;100249.81;5077719;28;20032;-85
2022/11/09 09:38:15;;;;;;;1.70;0.90;;;;;;;14.65;nan;100243.47;5069550;28;20028;-85
2022/11/09 09:40:56;;;;;;;2.78;1.15;;;;;;;14.67;nan;100248.63;5089648;28;20062;-86
2022/11/09 09:43:33;;;;;;;2.17;1.00;;;;;;;14.78;nan;100248.16;5087316;28;20553;-85
2022/11/09 09:46:01;;;;;;;3.05;1.00;;;;;;;14.96;nan;100250.41;5069861;28;20051;-86
2022/11/09 09:48:41;;;;;;;2.75;1.10;;;;;;;15.06;nan;100261.59;5085304;28;20045;-86
2022/11/09 09:51:19;;;;;;;4.22;1.00;;;;;;;15.13;nan;100260.84;5069869;28;20044;-85
2022/11/09 09:53:52;;;;;;;1.52;0.80;;;;;;;15.07;nan;100276.56;5089222;28;20055;-85
2022/11/09 09:56:20;;;;;;;8.18;1.40;;;;;;;15.00;nan;100266.84;5070013;28;20055;-85
2022/11/09 09:58:55;;;;;;;2.85;1.00;;;;;;;14.91;nan;100266.13;5089549;28;20123;-84
2022/11/09 10:01:26;;;;;;;1.83;0.90;;;;;;;14.83;nan;100269.72;5088474;28;20217;-85
2022/11/09 10:03:52;;;;;;;2.28;1.00;;;;;;;14.81;nan;100281.56;5070888;28;20036;-85
2022/11/09 10:06:47;;;;;;;2.08;1.10;;;;;;;14.74;nan;100281.47;5072943;28;20047;-85
2022/11/09 10:09:37;;;;;;;2.30;1.30;;;;;;;14.56;nan;100265.91;5092626;28;20043;-85
2022/11/09 10:12:09;;;;;;;2.03;1.10;;;;;;;14.48;nan;100262.47;5075359;28;20064;-85
2022/11/09 10:14:56;;;;;;;1.60;1.00;;;;;;;14.41;nan;100265.84;5093863;28;20528;-85
2022/11/09 10:17:42;;;;;;;2.38;1.10;;;;;;;14.39;nan;100259.06;5085624;28;20439;-85
2022/11/09 10:20:23;;;;;;;1.98;1.10;;;;;;;14.38;nan;100254.78;5079953;28;20032;-86
2022/11/09 10:22:56;;;;;;;;;;;;;;;14.41;nan;100262.38;5089118;28;20043;-85
2022/11/09 10:25:26;;;;;;;1.85;1.00;;;;;;;14.42;nan;100262.19;5095751;28;20277;-84
2022/11/09 10:27:58;;;;;;;2.15;1.05;;;;;;;14.47;nan;100264.31;5075269;28;20063;-84
2022/11/09 10:30:25;;;;;;;3.40;1.20;;;;;;;14.63;nan;100260.66;5091697;28;20082;-85
2022/11/09 10:32:55;;;;;;;7.80;1.30;;;;;;;14.80;nan;100262.13;5072631;28;20032;-85
2022/11/09 10:35:29;;;;;;;2.88;1.10;;;;;;;15.03;nan;100258.47;5088319;28;20115;-85
2022/11/09 10:37:55;;;;;;;2.17;1.10;;;;;;;15.25;nan;100254.00;5083434;28;20114;-84
2022/11/09 10:40:36;;;;;;;2.40;0.93;;;;;;;15.43;nan;100246.41;5093624;28;20039;-84
2022/11/09 10:43:07;;;;;;;2.75;1.10;;;;;;;15.46;nan;100246.03;5068965;28;20093;-85
2022/11/09 10:45:38;;;;;;;3.25;1.15;;;;;;;15.57;nan;100249.22;5095865;28;20505;-84
2022/11/09 10:48:06;;;;;;;3.05;1.10;;;;;;;15.50;nan;100249.97;5075076;28;20036;-84
2022/11/09 10:50:36;;;;;;;3.10;0.98;;;;;;;15.50;nan;100249.97;5074012;28;20394;-85
2022/11/09 10:53:14;;;;;;;3.08;1.20;;;;;;;15.44;nan;100252.56;5075154;28;20123;-84
2022/11/09 10:56:11;;;;;;;1.88;1.00;;;;;;;15.34;nan;100246.72;5069902;28;20033;-84
2022/11/09 10:58:44;;;;;;;1.80;1.00;;;;;;;15.31;nan;100247.94;5091306;28;20505;-85
2022/11/09 11:01:22;;;;;;;3.25;1.20;;;;;;;15.27;nan;100246.66;5074286;28;20048;-85
2022/11/09 11:03:53;;;;;;;2.90;1.10;;;;;;;15.40;nan;100249.47;5069365;28;20052;-85
2022/11/09 11:06:21;;;;;;;;;;;;;;;15.42;nan;100250.09;5073625;28;20058;-84
2022/11/09 11:08:53;;;;;;;2.30;1.00;;;;;;;15.57;nan;100258.03;5073575;28;19952;-85
2022/11/09 11:11:28;;;;;;;;;;;;;;;15.66;nan;100248.88;5080055;28;20406;-86
2022/11/09 11:14:11;;;;;;;2.05;1.20;;;;;;;15.77;nan;100247.56;5074967;28;19918;-85
2022/11/09 11:16:39;;;;;;;2.60;1.35;;;;;;;15.83;nan;100245.97;5082832;28;20051;-85
2022/11/09 11:19:04;;;;;;;2.38;1.13;;;;;;;15.86;nan;100241.06;5073081;28;20443;-85
2022/11/09 11:21:30;;;;;;;2.00;1.02;;;;;;;15.90;nan;100239.69;5073559;28;20052;-87
2022/11/09 11:24:17;;;;;;;1.73;1.00;;;;;;;15.94;nan;100245.44;5076016;28;20104;-86
2022/11/09 11:27:03;;;;;;;1.88;1.00;;;;;;;15.84;nan;100237.78;5089326;28;20028;-86
2022/11/09 11:29:58;;;;;;;2.03;1.08;;;;;;;15.80;nan;100249.84;5075499;28;20517;-85
2022/11/09 11:32:23;;;;;;;2.53;1.20;;;;;;;15.81;nan;100246.16;5068332;28;20126;-85
2022/11/09 11:34:49;;;;;;;2.20;1.10;;;;;;;15.90;nan;100237.00;5073455;28;20028;-86
2022/11/09 11:37:43;;;;;;;1.85;1.00;;;;;;;15.86;nan;100240.25;5074186;28;20039;-84
2022/11/09 11:40:32;;;;;;;3.03;1.30;;;;;;;16.00;nan;100239.34;5070503;28;20405;-85
2022/11/09 11:43:12;;;;;;;2.13;1.00;;;;;;;16.10;nan;100234.47;5068261;28;20355;-86
2022/11/09 11:45:42;;;;;;;2.30;1.15;;;;;;;16.14;nan;100242.91;5073767;28;20559;-85